Elton, Wisconsin
Current Conditions -  °F | °C
As of 3:35 PM on Friday 24 Oct 2014 (Local Time) from KAIG Reporting Station
Scattered Clouds Scattered Clouds  
Wind Chill: 56°   Ceiling: Unl
Heat Index: 56°   Visibility: 10mi
Dew Point: 49°   Wind: 7mph
Humidity: 77%   Direction: 200°SSW
Pressure: 29.89"   Gusts: NA
Location:  45.17°N, 88.89°W
Report Text: KAIG 242035Z AUTO 20006KT 10SM SCT041 14/10 A2989 RMK AO2 T01350096
Loading
Personal Weather Stations






























Interactive Weather Map
Tropical Storm Tracking
New forecast layout! Learn more

10-Day Weather Forecast

Advertisements
Track Severe Weather on mobile